Richmond (North Yorkshire), United Kingdom
Current Conditions -  °F | °C
As of 5:50 AM on Saturday 29 Nov 2014 (Local Time) from EGXE Reporting Station
Haze Haze  
Wind Chill:   Ceiling: 600
Heat Index:   Visibility: 2.6mi
Dew Point:   Wind: 7mph
Humidity: 100%   Direction: 130°SE
Pressure: 29.85"   Gusts: NA
Location:  54.41°N, 1.74°W
Report Text: EGXE 290550Z AUTO 13006KT 4300 BR OVC006/// 09/09 Q1011 RERA
Loading
Personal Weather Stations






























Interactive Weather Map New forecast layout! Learn more

10-Day Weather Forecast

Advertisements
Track Severe Weather on mobile